sensor_id;sensor_type;location;lat;lon;timestamp;pressure;altitude;pressure_sealevel;temperature;humidity
60015;BME280;45867;52.480;6.056;2023-04-10T00:01:38;102181.44;;;6.49;100.00
60015;BME280;45867;52.480;6.056;2023-04-10T00:04:03;102172.53;;;6.43;100.00
60015;BME280;45867;52.480;6.056;2023-04-10T00:06:33;102181.66;;;6.47;100.00
60015;BME280;45867;52.480;6.056;2023-04-10T00:08:58;102178.81;;;6.42;100.00
60015;BME280;45867;52.480;6.056;2023-04-10T00:11:24;102164.84;;;6.41;100.00
60015;BME280;45867;52.480;6.056;2023-04-10T00:13:50;102170.13;;;6.35;100.00
60015;BME280;45867;52.480;6.056;2023-04-10T00:16:15;102158.19;;;6.26;100.00
60015;BME280;45867;52.480;6.056;2023-04-10T00:18:40;102157.97;;;6.34;100.00
60015;BME280;45867;52.480;6.056;2023-04-10T00:21:06;102162.03;;;6.30;100.00
60015;BME280;45867;52.480;6.056;2023-04-10T00:23:31;102161.66;;;6.19;100.00
60015;BME280;45867;52.480;6.056;2023-04-10T00:25:59;102154.13;;;6.16;100.00
60015;BME280;45867;52.480;6.056;2023-04-10T00:28:24;102147.66;;;6.12;100.00
60015;BME280;45867;52.480;6.056;2023-04-10T00:30:49;102154.75;;;6.12;100.00
60015;BME280;45867;52.480;6.056;2023-04-10T00:33:15;102145.63;;;6.08;100.00
60015;BME280;45867;52.480;6.056;2023-04-10T00:35:40;102139.59;;;6.00;100.00
60015;BME280;45867;52.480;6.056;2023-04-10T00:38:05;102125.81;;;6.05;100.00
60015;BME280;45867;52.480;6.056;2023-04-10T00:40:31;102124.38;;;6.03;100.00
60015;BME280;45867;52.480;6.056;2023-04-10T00:42:56;102107.19;;;6.00;100.00
60015;BME280;45867;52.480;6.056;2023-04-10T00:45:21;102105.78;;;5.97;100.00
60015;BME280;45867;52.480;6.056;2023-04-10T00:47:47;102105.38;;;6.00;100.00
60015;BME280;45867;52.480;6.056;2023-04-10T00:50:12;102096.47;;;6.02;100.00
60015;BME280;45867;52.480;6.056;2023-04-10T00:52:38;102089.78;;;6.06;100.00
60015;BME280;45867;52.480;6.056;2023-04-10T00:55:04;102067.53;;;5.95;100.00
60015;BME280;45867;52.480;6.056;2023-04-10T00:57:30;102092.22;;;6.00;100.00
60015;BME280;45867;52.480;6.056;2023-04-10T00:59:56;102082.91;;;5.98;100.00
60015;BME280;45867;52.480;6.056;2023-04-10T01:02:22;102077.44;;;5.99;100.00
60015;BME280;45867;52.480;6.056;2023-04-10T01:04:47;102076.25;;;5.95;100.00
60015;BME280;45867;52.480;6.056;2023-04-10T01:09:49;102073.59;;;5.95;100.00
60015;BME280;45867;52.480;6.056;2023-04-10T01:15:04;102077.03;;;5.96;100.00
60015;BME280;45867;52.480;6.056;2023-04-10T01:17:39;102073.38;;;5.90;100.00
60015;BME280;45867;52.480;6.056;2023-04-10T01:20:11;102076.41;;;5.87;100.00
60015;BME280;45867;52.480;6.056;2023-04-10T01:25:39;102072.78;;;5.82;100.00
60015;BME280;45867;52.480;6.056;2023-04-10T01:30:45;102071.75;;;5.83;100.00
60015;BME280;45867;52.480;6.056;2023-04-10T01:33:12;102072.78;;;5.82;100.00
60015;BME280;45867;52.480;6.056;2023-04-10T01:35:42;102067.72;;;5.73;100.00
60015;BME280;45867;52.480;6.056;2023-04-10T01:38:08;102072.19;;;5.73;100.00
60015;BME280;45867;52.480;6.056;2023-04-10T01:40:38;102067.31;;;5.70;100.00
60015;BME280;45867;52.480;6.056;2023-04-10T01:43:05;102064.50;;;5.65;100.00
60015;BME280;45867;52.480;6.056;2023-04-10T01:45:32;102056.41;;;5.60;100.00
60015;BME280;45867;52.480;6.056;2023-04-10T01:47:58;102058.81;;;5.61;100.00
60015;BME280;45867;52.480;6.056;2023-04-10T01:50:25;102067.50;;;5.62;100.00
60015;BME280;45867;52.480;6.056;2023-04-10T01:52:52;102053.97;;;5.51;100.00
60015;BME280;45867;52.480;6.056;2023-04-10T01:55:19;102061.03;;;5.64;100.00
60015;BME280;45867;52.480;6.056;2023-04-10T01:57:45;102056.59;;;5.65;100.00
60015;BME280;45867;52.480;6.056;2023-04-10T02:00:13;102054.16;;;5.70;100.00
60015;BME280;45867;52.480;6.056;2023-04-10T02:02:40;102045.47;;;5.63;100.00
60015;BME280;45867;52.480;6.056;2023-04-10T02:05:07;102046.88;;;5.65;100.00
60015;BME280;45867;52.480;6.056;2023-04-10T02:07:40;102040.41;;;5.68;100.00
60015;BME280;45867;52.480;6.056;2023-04-10T02:10:08;102049.91;;;5.69;100.00
60015;BME280;45867;52.480;6.056;2023-04-10T02:12:38;102032.94;;;5.65;100.00
60015;BME280;45867;52.480;6.056;2023-04-10T02:15:07;102037.56;;;5.69;100.00
60015;BME280;45867;52.480;6.056;2023-04-10T02:17:34;102038.78;;;5.67;100.00
60015;BME280;45867;52.480;6.056;2023-04-10T02:20:01;102029.88;;;5.61;100.00
60015;BME280;45867;52.480;6.056;2023-04-10T02:22:27;102031.91;;;5.59;100.00
60015;BME280;45867;52.480;6.056;2023-04-10T02:24:53;102040.59;;;5.66;100.00
60015;BME280;45867;52.480;6.056;2023-04-10T02:27:33;102034.31;;;5.67;100.00
60015;BME280;45867;52.480;6.056;2023-04-10T02:29:59;102028.28;;;5.60;100.00
60015;BME280;45867;52.480;6.056;2023-04-10T02:32:26;102022.22;;;5.60;100.00
60015;BME280;45867;52.480;6.056;2023-04-10T02:34:51;102025.84;;;5.59;100.00
60015;BME280;45867;52.480;6.056;2023-04-10T02:37:17;102009.28;;;5.51;100.00
60015;BME280;45867;52.480;6.056;2023-04-10T02:39:42;102015.34;;;5.52;100.00
60015;BME280;45867;52.480;6.056;2023-04-10T02:42:07;102010.91;;;5.46;100.00
60015;BME280;45867;52.480;6.056;2023-04-10T02:44:33;102009.84;;;5.53;100.00
60015;BME280;45867;52.480;6.056;2023-04-10T02:46:58;102008.88;;;5.54;100.00
60015;BME280;45867;52.480;6.056;2023-04-10T02:49:23;102014.53;;;5.58;100.00
60015;BME280;45867;52.480;6.056;2023-04-10T02:51:49;102016.94;;;5.53;100.00
60015;BME280;45867;52.480;6.056;2023-04-10T02:54:14;102024.22;;;5.57;100.00
60015;BME280;45867;52.480;6.056;2023-04-10T02:56:39;102013.50;;;5.52;100.00
60015;BME280;45867;52.480;6.056;2023-04-10T02:59:05;102015.94;;;5.54;100.00
60015;BME280;45867;52.480;6.056;2023-04-10T03:01:31;102015.53;;;5.57;100.00
60015;BME280;45867;52.480;6.056;2023-04-10T03:03:56;102008.25;;;5.52;100.00
60015;BME280;45867;52.480;6.056;2023-04-10T03:06:22;101995.31;;;5.44;100.00
60015;BME280;45867;52.480;6.056;2023-04-10T03:08:51;102008.66;;;5.49;100.00
60015;BME280;45867;52.480;6.056;2023-04-10T03:11:16;102015.53;;;5.50;100.00
60015;BME280;45867;52.480;6.056;2023-04-10T03:13:42;102012.09;;;5.50;100.00
60015;BME280;45867;52.480;6.056;2023-04-10T03:16:07;102013.69;;;5.51;100.00
60015;BME280;45867;52.480;6.056;2023-04-10T03:18:33;102016.16;;;5.46;100.00
60015;BME280;45867;52.480;6.056;2023-04-10T03:20:58;102023.00;;;5.53;100.00
60015;BME280;45867;52.480;6.056;2023-04-10T03:23:24;102016.34;;;5.44;100.00
60015;BME280;45867;52.480;6.056;2023-04-10T03:25:50;102020.19;;;5.55;100.00
60015;BME280;45867;52.480;6.056;2023-04-10T03:28:17;102013.09;;;5.55;100.00
60015;BME280;45867;52.480;6.056;2023-04-10T03:30:43;102017.38;;;5.56;100.00
60015;BME280;45867;52.480;6.056;2023-04-10T03:33:08;102010.28;;;5.57;100.00
60015;BME280;45867;52.480;6.056;2023-04-10T03:35:33;102011.88;;;5.58;100.00
60015;BME280;45867;52.480;6.056;2023-04-10T03:37:59;102003.78;;;5.53;100.00
60015;BME280;45867;52.480;6.056;2023-04-10T03:40:24;102002.38;;;5.64;100.00
60015;BME280;45867;52.480;6.056;2023-04-10T03:42:49;102008.44;;;5.57;100.00
60015;BME280;45867;52.480;6.056;2023-04-10T03:45:15;102006.63;;;5.58;100.00
60015;BME280;45867;52.480;6.056;2023-04-10T03:47:40;102015.53;;;5.57;100.00
60015;BME280;45867;52.480;6.056;2023-04-10T03:50:05;101996.72;;;5.53;100.00
60015;BME280;45867;52.480;6.056;2023-04-10T03:52:31;102012.09;;;5.56;100.00
60015;BME280;45867;52.480;6.056;2023-04-10T03:54:56;101994.28;;;5.59;100.00
60015;BME280;45867;52.480;6.056;2023-04-10T03:57:21;102001.97;;;5.60;100.00
60015;BME280;45867;52.480;6.056;2023-04-10T03:59:47;102001.19;;;5.60;100.00
60015;BME280;45867;52.480;6.056;2023-04-10T04:02:12;101996.50;;;5.62;100.00
60015;BME280;45867;52.480;6.056;2023-04-10T04:04:39;101996.31;;;5.63;100.00
60015;BME280;45867;52.480;6.056;2023-04-10T04:07:04;101986.81;;;5.62;100.00
60015;BME280;45867;52.480;6.056;2023-04-10T04:09:29;101983.56;;;5.60;100.00
60015;BME280;45867;52.480;6.056;2023-04-10T04:11:55;101973.88;;;5.54;100.00
60015;BME280;45867;52.480;6.056;2023-04-10T04:14:22;101984.00;;;5.57;100.00
60015;BME280;45867;52.480;6.056;2023-04-10T04:16:48;101988.44;;;5.63;100.00
60015;BME280;45867;52.480;6.056;2023-04-10T04:19:13;101981.94;;;5.59;100.00
60015;BME280;45867;52.480;6.056;2023-04-10T04:21:38;101975.88;;;5.59;100.00
60015;BME280;45867;52.480;6.056;2023-04-10T04:24:04;101970.41;;;5.53;100.00
60015;BME280;45867;52.480;6.056;2023-04-10T04:26:29;101973.66;;;5.55;100.00
60015;BME280;45867;52.480;6.056;2023-04-10T04:28:55;101968.19;;;5.50;100.00
60015;BME280;45867;52.480;6.056;2023-04-10T04:31:27;101972.88;;;5.48;100.00
60015;BME280;45867;52.480;6.056;2023-04-10T04:33:59;101962.34;;;5.42;100.00
60015;BME280;45867;52.480;6.056;2023-04-10T04:36:26;101973.06;;;5.47;100.00
60015;BME280;45867;52.480;6.056;2023-04-10T04:38:52;101966.59;;;5.43;100.00
60015;BME280;45867;52.480;6.056;2023-04-10T04:41:17;101954.28;;;5.30;100.00
60015;BME280;45867;52.480;6.056;2023-04-10T04:43:42;101961.38;;;5.29;100.00
60015;BME280;45867;52.480;6.056;2023-04-10T04:46:08;101967.00;;;5.33;100.00
60015;BME280;45867;52.480;6.056;2023-04-10T04:48:36;101973.88;;;5.34;100.00
60015;BME280;45867;52.480;6.056;2023-04-10T04:51:01;101961.38;;;5.29;100.00
60015;BME280;45867;52.480;6.056;2023-04-10T04:53:27;101963.78;;;5.31;100.00
60015;BME280;45867;52.480;6.056;2023-04-10T04:55:52;101960.53;;;5.29;100.00
60015;BME280;45867;52.480;6.056;2023-04-10T04:58:17;101973.66;;;5.29;100.00
60015;BME280;45867;52.480;6.056;2023-04-10T05:00:44;101970.25;;;5.28;100.00
60015;BME280;45867;52.480;6.056;2023-04-10T05:03:09;101964.78;;;5.30;100.00
60015;BME280;45867;52.480;6.056;2023-04-10T05:05:35;101951.44;;;5.25;100.00
60015;BME280;45867;52.480;6.056;2023-04-10T05:08:00;101966.41;;;5.31;100.00
60015;BME280;45867;52.480;6.056;2023-04-10T05:10:25;101958.50;;;5.31;100.00
60015;BME280;45867;52.480;6.056;2023-04-10T05:12:51;101956.91;;;5.30;100.00
60015;BME280;45867;52.480;6.056;2023-04-10T05:15:17;101945.97;;;5.33;100.00
60015;BME280;45867;52.480;6.056;2023-04-10T05:17:42;101939.72;;;5.27;100.00
60015;BME280;45867;52.480;6.056;2023-04-10T05:20:08;101948.00;;;5.38;100.00
60015;BME280;45867;52.480;6.056;2023-04-10T05:22:34;101925.16;;;5.31;100.00
60015;BME280;45867;52.480;6.056;2023-04-10T05:25:00;101941.72;;;5.45;100.00
60015;BME280;45867;52.480;6.056;2023-04-10T05:27:25;101928.59;;;5.39;100.00
60015;BME280;45867;52.480;6.056;2023-04-10T05:29:50;101944.75;;;5.55;100.00
60015;BME280;45867;52.480;6.056;2023-04-10T05:32:15;101934.81;;;5.51;100.00
60015;BME280;45867;52.480;6.056;2023-04-10T05:34:41;101948.38;;;5.68;100.00
60015;BME280;45867;52.480;6.056;2023-04-10T05:37:06;101949.97;;;5.69;100.00
60015;BME280;45867;52.480;6.056;2023-04-10T05:39:33;101948.16;;;5.69;100.00
60015;BME280;45867;52.480;6.056;2023-04-10T05:41:58;101956.84;;;5.76;100.00
60015;BME280;45867;52.480;6.056;2023-04-10T05:44:23;101943.31;;;5.73;100.00
60015;BME280;45867;52.480;6.056;2023-04-10T05:46:48;101950.56;;;5.84;100.00
60015;BME280;45867;52.480;6.056;2023-04-10T05:49:14;101931.94;;;5.86;100.00
60015;BME280;45867;52.480;6.056;2023-04-10T05:51:41;101938.19;;;5.98;100.00
60015;BME280;45867;52.480;6.056;2023-04-10T05:54:06;101939.38;;;6.09;100.00
60015;BME280;45867;52.480;6.056;2023-04-10T05:56:31;101944.19;;;6.18;100.00
60015;BME280;45867;52.480;6.056;2023-04-10T05:58:56;101943.09;;;6.33;100.00
60015;BME280;45867;52.480;6.056;2023-04-10T06:01:22;101945.66;;;6.53;100.00
60015;BME280;45867;52.480;6.056;2023-04-10T06:03:47;101933.38;;;6.72;100.00
60015;BME280;45867;52.480;6.056;2023-04-10T06:06:12;101930.44;;;6.86;100.00
60015;BME280;45867;52.480;6.056;2023-04-10T06:08:38;101921.91;;;6.91;100.00
60015;BME280;45867;52.480;6.056;2023-04-10T06:11:03;101928.50;;;7.00;100.00
60015;BME280;45867;52.480;6.056;2023-04-10T06:13:29;101932.78;;;7.01;100.00
60015;BME280;45867;52.480;6.056;2023-04-10T06:15:54;101920.16;;;7.03;100.00
60015;BME280;45867;52.480;6.056;2023-04-10T06:18:19;101930.69;;;7.03;100.00
60015;BME280;45867;52.480;6.056;2023-04-10T06:20:45;101915.13;;;7.02;100.00
60015;BME280;45867;52.480;6.056;2023-04-10T06:23:12;101916.81;;;7.15;100.00
60015;BME280;45867;52.480;6.056;2023-04-10T06:25:38;101916.72;;;7.28;100.00
60015;BME280;45867;52.480;6.056;2023-04-10T06:28:03;101918.34;;;7.29;100.00
60015;BME280;45867;52.480;6.056;2023-04-10T06:30:28;101899.44;;;7.32;100.00
60015;BME280;45867;52.480;6.056;2023-04-10T06:32:55;101902.69;;;7.52;100.00
60015;BME280;45867;52.480;6.056;2023-04-10T06:35:20;101898.34;;;7.58;100.00
60015;BME280;45867;52.480;6.056;2023-04-10T06:37:45;101894.47;;;7.79;100.00
60015;BME280;45867;52.480;6.056;2023-04-10T06:40:13;101895.47;;;7.96;100.00
60015;BME280;45867;52.480;6.056;2023-04-10T06:42:38;101898.34;;;7.95;100.00
60015;BME280;45867;52.480;6.056;2023-04-10T06:45:05;101888.53;;;8.02;100.00
60015;BME280;45867;52.480;6.056;2023-04-10T06:47:31;101885.06;;;8.32;100.00
60015;BME280;45867;52.480;6.056;2023-04-10T06:49:56;101882.06;;;8.47;100.00
60015;BME280;45867;52.480;6.056;2023-04-10T06:52:21;101884.63;;;8.65;100.00
60015;BME280;45867;52.480;6.056;2023-04-10T06:54:47;101881.22;;;8.88;100.00
60015;BME280;45867;52.480;6.056;2023-04-10T06:57:12;101874.78;;;9.19;100.00
60015;BME280;45867;52.480;6.056;2023-04-10T06:59:37;101862.78;;;9.52;100.00
60015;BME280;45867;52.480;6.056;2023-04-10T07:02:03;101855.41;;;9.54;100.00
60015;BME280;45867;52.480;6.056;2023-04-10T07:04:28;101867.50;;;9.50;100.00
60015;BME280;45867;52.480;6.056;2023-04-10T07:06:54;101861.16;;;9.51;100.00
60015;BME280;45867;52.480;6.056;2023-04-10T07:09:20;101857.25;;;9.53;100.00
60015;BME280;45867;52.480;6.056;2023-04-10T07:11:45;101856.25;;;9.43;100.00
60015;BME280;45867;52.480;6.056;2023-04-10T07:14:10;101854.47;;;9.72;100.00
60015;BME280;45867;52.480;6.056;2023-04-10T07:16:36;101844.53;;;10.08;100.00
60015;BME280;45867;52.480;6.056;2023-04-10T07:19:01;101840.63;;;10.56;100.00
60015;BME280;45867;52.480;6.056;2023-04-10T07:21:27;101831.13;;;11.16;100.00
60015;BME280;45867;52.480;6.056;2023-04-10T07:23:53;101832.25;;;11.20;100.00
60015;BME280;45867;52.480;6.056;2023-04-10T07:26:18;101830.53;;;11.74;100.00
60015;BME280;45867;52.480;6.056;2023-04-10T07:28:43;101810.88;;;11.75;100.00
60015;BME280;45867;52.480;6.056;2023-04-10T07:31:11;101812.38;;;12.15;100.00
60015;BME280;45867;52.480;6.056;2023-04-10T07:33:38;101808.56;;;12.33;100.00
60015;BME280;45867;52.480;6.056;2023-04-10T07:36:04;101798.50;;;12.40;100.00
60015;BME280;45867;52.480;6.056;2023-04-10T07:38:30;101795.94;;;12.18;100.00
60015;BME280;45867;52.480;6.056;2023-04-10T07:40:59;101789.03;;;12.17;100.00
60015;BME280;45867;52.480;6.056;2023-04-10T07:43:24;101789.53;;;12.14;100.00
60015;BME280;45867;52.480;6.056;2023-04-10T07:45:50;101785.69;;;12.70;100.00
60015;BME280;45867;52.480;6.056;2023-04-10T07:48:16;101782.56;;;12.83;100.00
60015;BME280;45867;52.480;6.056;2023-04-10T07:50:41;101783.44;;;12.94;100.00
60015;BME280;45867;52.480;6.056;2023-04-10T07:53:06;101778.38;;;12.97;100.00
60015;BME280;45867;52.480;6.056;2023-04-10T07:55:39;101773.34;;;13.01;100.00
60015;BME280;45867;52.480;6.056;2023-04-10T07:58:05;101774.09;;;12.91;100.00
60015;BME280;45867;52.480;6.056;2023-04-10T08:00:31;101765.69;;;13.09;100.00
60015;BME280;45867;52.480;6.056;2023-04-10T08:02:56;101769.75;;;13.27;100.00
60015;BME280;45867;52.480;6.056;2023-04-10T08:05:22;101772.34;;;13.17;100.00
60015;BME280;45867;52.480;6.056;2023-04-10T08:07:47;101754.50;;;13.07;100.00
60015;BME280;45867;52.480;6.056;2023-04-10T08:10:12;101767.19;;;12.95;100.00
60015;BME280;45867;52.480;6.056;2023-04-10T08:12:38;101772.56;;;13.05;100.00
60015;BME280;45867;52.480;6.056;2023-04-10T08:15:03;101767.84;;;12.70;100.00
60015;BME280;45867;52.480;6.056;2023-04-10T08:17:29;101770.03;;;12.78;100.00
60015;BME280;45867;52.480;6.056;2023-04-10T08:19:54;101761.41;;;12.56;100.00
60015;BME280;45867;52.480;6.056;2023-04-10T08:22:19;101761.47;;;12.71;100.00
60015;BME280;45867;52.480;6.056;2023-04-10T08:24:45;101754.66;;;13.43;100.00
60015;BME280;45867;52.480;6.056;2023-04-10T08:27:10;101738.75;;;13.99;100.00
60015;BME280;45867;52.480;6.056;2023-04-10T08:29:35;101756.03;;;14.63;98.94
60015;BME280;45867;52.480;6.056;2023-04-10T08:32:01;101753.41;;;15.28;94.54
60015;BME280;45867;52.480;6.056;2023-04-10T08:34:26;101756.16;;;15.03;95.65
60015;BME280;45867;52.480;6.056;2023-04-10T08:36:53;101755.91;;;15.09;94.26
60015;BME280;45867;52.480;6.056;2023-04-10T08:39:18;101754.81;;;15.05;93.86
60015;BME280;45867;52.480;6.056;2023-04-10T08:41:43;101758.19;;;14.31;95.06
60015;BME280;45867;52.480;6.056;2023-04-10T08:44:11;101749.69;;;14.13;95.78
60015;BME280;45867;52.480;6.056;2023-04-10T08:46:41;101749.63;;;13.77;97.77
60015;BME280;45867;52.480;6.056;2023-04-10T08:49:15;101737.38;;;13.76;99.02
60015;BME280;45867;52.480;6.056;2023-04-10T08:51:42;101734.41;;;13.42;100.00
60015;BME280;45867;52.480;6.056;2023-04-10T08:54:13;101736.84;;;13.74;100.00
60015;BME280;45867;52.480;6.056;2023-04-10T08:56:46;101728.06;;;14.05;100.00
60015;BME280;45867;52.480;6.056;2023-04-10T08:59:13;101718.94;;;14.67;97.77
60015;BME280;45867;52.480;6.056;2023-04-10T09:01:39;101714.88;;;14.90;95.20
60015;BME280;45867;52.480;6.056;2023-04-10T09:04:05;101717.41;;;14.40;95.07
60015;BME280;45867;52.480;6.056;2023-04-10T09:06:31;101708.03;;;15.23;94.90
60015;BME280;45867;52.480;6.056;2023-04-10T09:08:56;101708.59;;;15.20;92.30
60015;BME280;45867;52.480;6.056;2023-04-10T09:14:22;101712.59;;;15.23;90.48
60015;BME280;45867;52.480;6.056;2023-04-10T09:16:48;101708.63;;;15.10;91.39
60015;BME280;45867;52.480;6.056;2023-04-10T09:19:31;101710.75;;;15.13;91.81
60015;BME280;45867;52.480;6.056;2023-04-10T09:21:57;101698.84;;;14.95;91.01
60015;BME280;45867;52.480;6.056;2023-04-10T09:24:23;101702.72;;;15.58;88.66
60015;BME280;45867;52.480;6.056;2023-04-10T09:26:49;101705.94;;;15.60;89.12
60015;BME280;45867;52.480;6.056;2023-04-10T09:29:14;101708.97;;;16.16;88.62
60015;BME280;45867;52.480;6.056;2023-04-10T09:31:41;101697.63;;;16.30;85.71
60015;BME280;45867;52.480;6.056;2023-04-10T09:34:17;101688.38;;;16.17;84.62
60015;BME280;45867;52.480;6.056;2023-04-10T09:36:51;101684.63;;;16.66;86.24
60015;BME280;45867;52.480;6.056;2023-04-10T09:39:17;101668.47;;;16.52;85.04
60015;BME280;45867;52.480;6.056;2023-04-10T09:41:49;101661.88;;;16.20;86.70
60015;BME280;45867;52.480;6.056;2023-04-10T09:44:19;101651.94;;;15.28;87.55
60015;BME280;45867;52.480;6.056;2023-04-10T09:46:52;101649.97;;;15.44;91.17
60015;BME280;45867;52.480;6.056;2023-04-10T09:49:18;101644.50;;;15.20;91.93
60015;BME280;45867;52.480;6.056;2023-04-10T09:51:43;101632.91;;;14.96;92.95
60015;BME280;45867;52.480;6.056;2023-04-10T09:54:09;101638.19;;;14.46;95.08
60015;BME280;45867;52.480;6.056;2023-04-10T09:56:37;101639.00;;;14.31;95.41
60015;BME280;45867;52.480;6.056;2023-04-10T09:59:02;101635.50;;;14.46;96.39
60015;BME280;45867;52.480;6.056;2023-04-10T10:01:29;101626.53;;;14.16;96.49
60015;BME280;45867;52.480;6.056;2023-04-10T10:04:03;101626.00;;;14.09;98.60
60015;BME280;45867;52.480;6.056;2023-04-10T10:06:32;101624.16;;;13.99;97.68
60015;BME280;45867;52.480;6.056;2023-04-10T10:09:02;101622.56;;;13.98;98.47
60015;BME280;45867;52.480;6.056;2023-04-10T10:11:31;101609.19;;;14.14;98.64
60015;BME280;45867;52.480;6.056;2023-04-10T10:13:57;101602.75;;;14.35;97.84
60015;BME280;45867;52.480;6.056;2023-04-10T10:16:39;101610.06;;;13.79;98.93
60015;BME280;45867;52.480;6.056;2023-04-10T10:21:51;101590.25;;;14.15;100.00
60015;BME280;45867;52.480;6.056;2023-04-10T10:24:18;101585.19;;;14.24;100.00
60015;BME280;45867;52.480;6.056;2023-04-10T10:26:45;101586.75;;;14.30;100.00
60015;BME280;45867;52.480;6.056;2023-04-10T10:29:14;101569.91;;;14.40;100.00
60015;BME280;45867;52.480;6.056;2023-04-10T10:31:41;101567.78;;;14.37;100.00
60015;BME280;45867;52.480;6.056;2023-04-10T10:34:08;101568.34;;;14.29;100.00
60015;BME280;45867;52.480;6.056;2023-04-10T10:36:38;101567.59;;;14.13;99.13
60015;BME280;45867;52.480;6.056;2023-04-10T10:42:29;101557.91;;;14.42;97.54
60015;BME280;45867;52.480;6.056;2023-04-10T10:45:11;101545.31;;;14.63;97.17
60015;BME280;45867;52.480;6.056;2023-04-10T10:48:06;101547.38;;;14.77;96.20
60015;BME280;45867;52.480;6.056;2023-04-10T10:50:55;101532.59;;;14.40;96.56
60015;BME280;45867;52.480;6.056;2023-04-10T10:53:42;101535.47;;;13.89;98.64
60015;BME280;45867;52.480;6.056;2023-04-10T10:58:47;101507.88;;;14.24;100.00
60015;BME280;45867;52.480;6.056;2023-04-10T11:01:12;101514.50;;;14.27;99.47
60015;BME280;45867;52.480;6.056;2023-04-10T11:03:38;101504.66;;;14.27;100.00
60015;BME280;45867;52.480;6.056;2023-04-10T11:06:07;101499.94;;;14.14;100.00
60015;BME280;45867;52.480;6.056;2023-04-10T11:11:00;101485.84;;;13.98;100.00
60015;BME280;45867;52.480;6.056;2023-04-10T11:13:33;101482.09;;;14.04;100.00
60015;BME280;45867;52.480;6.056;2023-04-10T11:15:59;101481.69;;;14.36;100.00
60015;BME280;45867;52.480;6.056;2023-04-10T11:21:11;101478.41;;;14.55;100.00
60015;BME280;45867;52.480;6.056;2023-04-10T11:26:12;101449.97;;;14.79;98.39
60015;BME280;45867;52.480;6.056;2023-04-10T11:28:38;101453.25;;;15.00;98.76
60015;BME280;45867;52.480;6.056;2023-04-10T11:31:18;101447.25;;;15.14;96.90
60015;BME280;45867;52.480;6.056;2023-04-10T11:34:08;101440.66;;;15.59;96.43
60015;BME280;45867;52.480;6.056;2023-04-10T11:36:33;101437.66;;;15.90;94.03
60015;BME280;45867;52.480;6.056;2023-04-10T11:39:04;101438.31;;;16.19;93.12
60015;BME280;45867;52.480;6.056;2023-04-10T11:41:41;101425.72;;;16.77;91.77
60015;BME280;45867;52.480;6.056;2023-04-10T11:44:11;101421.69;;;16.60;89.86
60015;BME280;45867;52.480;6.056;2023-04-10T11:46:38;101416.38;;;16.74;90.66
60015;BME280;45867;52.480;6.056;2023-04-10T11:49:06;101418.75;;;16.95;90.45
60015;BME280;45867;52.480;6.056;2023-04-10T11:51:34;101409.75;;;18.01;86.66
60015;BME280;45867;52.480;6.056;2023-04-10T11:54:14;101400.16;;;19.87;76.72
60015;BME280;45867;52.480;6.056;2023-04-10T11:56:41;101405.72;;;20.17;64.05
60015;BME280;45867;52.480;6.056;2023-04-10T11:59:10;101390.53;;;18.98;67.60
60015;BME280;45867;52.480;6.056;2023-04-10T12:01:38;101388.25;;;19.22;70.15
60015;BME280;45867;52.480;6.056;2023-04-10T12:04:12;101372.88;;;18.29;71.88
60015;BME280;45867;52.480;6.056;2023-04-10T12:06:38;101382.25;;;17.95;75.96
60015;BME280;45867;52.480;6.056;2023-04-10T12:09:12;101385.63;;;17.32;81.55
60015;BME280;45867;52.480;6.056;2023-04-10T12:11:38;101386.81;;;16.65;84.90
60015;BME280;45867;52.480;6.056;2023-04-10T12:14:03;101371.91;;;16.46;89.29
60015;BME280;45867;52.480;6.056;2023-04-10T12:16:31;101374.94;;;16.01;91.40
60015;BME280;45867;52.480;6.056;2023-04-10T12:18:56;101379.75;;;16.04;92.99
60015;BME280;45867;52.480;6.056;2023-04-10T12:21:22;101367.50;;;15.79;95.32
60015;BME280;45867;52.480;6.056;2023-04-10T12:23:47;101367.06;;;15.72;95.74
60015;BME280;45867;52.480;6.056;2023-04-10T12:26:14;101376.41;;;15.93;96.95
60015;BME280;45867;52.480;6.056;2023-04-10T12:28:42;101370.88;;;15.85;95.44
60015;BME280;45867;52.480;6.056;2023-04-10T12:31:13;101366.06;;;15.63;96.40
60015;BME280;45867;52.480;6.056;2023-04-10T12:33:38;101361.16;;;15.75;96.11
60015;BME280;45867;52.480;6.056;2023-04-10T12:36:19;101355.56;;;16.09;96.86
60015;BME280;45867;52.480;6.056;2023-04-10T12:38:44;101338.22;;;16.26;95.25
60015;BME280;45867;52.480;6.056;2023-04-10T12:41:11;101345.19;;;16.27;95.75
60015;BME280;45867;52.480;6.056;2023-04-10T12:43:41;101331.28;;;16.25;95.59
60015;BME280;45867;52.480;6.056;2023-04-10T12:46:09;101321.72;;;15.86;95.30
60015;BME280;45867;52.480;6.056;2023-04-10T12:48:35;101320.47;;;16.16;96.60
60015;BME280;45867;52.480;6.056;2023-04-10T12:51:01;101300.13;;;16.34;97.18
60015;BME280;45867;52.480;6.056;2023-04-10T12:53:41;101303.81;;;16.38;96.61
60015;BME280;45867;52.480;6.056;2023-04-10T12:56:07;101298.72;;;16.36;97.24
60015;BME280;45867;52.480;6.056;2023-04-10T12:58:32;101300.78;;;16.26;96.83
60015;BME280;45867;52.480;6.056;2023-04-10T13:01:02;101286.75;;;16.34;98.53
60015;BME280;45867;52.480;6.056;2023-04-10T13:03:28;101290.72;;;16.36;97.53
60015;BME280;45867;52.480;6.056;2023-04-10T13:05:53;101278.47;;;16.16;98.57
60015;BME280;45867;52.480;6.056;2023-04-10T13:08:20;101274.75;;;15.98;98.88
60015;BME280;45867;52.480;6.056;2023-04-10T13:10:46;101267.38;;;15.90;98.39
60015;BME280;45867;52.480;6.056;2023-04-10T13:13:12;101261.38;;;15.98;98.78
60015;BME280;45867;52.480;6.056;2023-04-10T13:15:38;101252.94;;;15.91;97.97
60015;BME280;45867;52.480;6.056;2023-04-10T13:18:03;101251.91;;;16.06;98.22